KNJK/NJK METAR and TAF weather

Enter ICAO airport designator
Station Type Date Time Source
KNJK METAR 2023/02/05 21:56 UTC NOAA

KNJK 052156Z AUTO 27008G19KT 10SM CLR 24/06 A3004 RMK AO2 SLP186 T02440061 $


Station Type Date Time Source
KNJK Decoded METAR 2023/02/05 21:56 UTC NOAA

El Centro, Naval Air Facility, CA, United States (KNJK) 32-49-30N 115-39-38W -13M
Feb 05, 2023 - 04:56 PM EST / 2023.02.05 2156 UTC
Wind: from the W (270 degrees) at 9 MPH (8 KT) gusting to 22 MPH (19 KT):0
Visibility: 10 mile(s):0
Sky conditions: clear
Temperature: 75.9 F (24.4 C)
Dew Point: 43.0 F (6.1 C)
Relative Humidity: 30%
Pressure (altimeter): 30.04 in. Hg (1017 hPa)
ob: KNJK 052156Z AUTO 27008G19KT 10SM CLR 24/06 A3004 RMK AO2 SLP186 T02440061
cycle: 22

Station Type Date Time Source
KNJK TAF 2023/02/05 12:48 UTC NOAA

TAF TAF COR KNJK 0512/0607 VRB06KT 9999 FEW200 QNH3010INS
BECMG 0519/0520 27015G25KT FEW250 QNH3015INS
FM060200 27009KT 9999 FEW200 QNH3017INS LAST NO
AMDS 0512 TIL 0607 T08/0511Z T23/0521Z COR 1246 FS30200

Example: see airport list